sensor_id;sensor_type;location;lat;lon;timestamp;temperature;humidity
3602;DHT22;1815;50.950;6.920;2022-07-23T00:00:54;21.90;99.90
3602;DHT22;1815;50.950;6.920;2022-07-23T00:03:20;21.80;99.90
3602;DHT22;1815;50.950;6.920;2022-07-23T00:05:45;21.80;99.90
3602;DHT22;1815;50.950;6.920;2022-07-23T00:08:11;21.80;99.90
3602;DHT22;1815;50.950;6.920;2022-07-23T00:10:37;21.70;99.90
3602;DHT22;1815;50.950;6.920;2022-07-23T00:13:03;21.70;99.90
3602;DHT22;1815;50.950;6.920;2022-07-23T00:15:29;21.60;99.90
3602;DHT22;1815;50.950;6.920;2022-07-23T00:17:55;21.60;99.90
3602;DHT22;1815;50.950;6.920;2022-07-23T00:20:21;21.50;99.90
3602;DHT22;1815;50.950;6.920;2022-07-23T00:22:52;21.40;99.90
3602;DHT22;1815;50.950;6.920;2022-07-23T00:25:19;21.20;99.90
3602;DHT22;1815;50.950;6.920;2022-07-23T00:27:45;21.00;99.90
3602;DHT22;1815;50.950;6.920;2022-07-23T00:30:12;20.90;99.90
3602;DHT22;1815;50.950;6.920;2022-07-23T00:32:52;20.70;99.90
3602;DHT22;1815;50.950;6.920;2022-07-23T00:35:20;20.50;99.90
3602;DHT22;1815;50.950;6.920;2022-07-23T00:37:47;20.40;99.90
3602;DHT22;1815;50.950;6.920;2022-07-23T00:40:13;20.20;99.90
3602;DHT22;1815;50.950;6.920;2022-07-23T00:42:39;20.10;99.90
3602;DHT22;1815;50.950;6.920;2022-07-23T00:45:06;20.00;99.90
3602;DHT22;1815;50.950;6.920;2022-07-23T00:47:32;20.00;99.90
3602;DHT22;1815;50.950;6.920;2022-07-23T00:49:58;19.90;99.90
3602;DHT22;1815;50.950;6.920;2022-07-23T00:52:24;19.90;99.90
3602;DHT22;1815;50.950;6.920;2022-07-23T00:54:50;19.80;99.90
3602;DHT22;1815;50.950;6.920;2022-07-23T00:57:17;19.80;99.90
3602;DHT22;1815;50.950;6.920;2022-07-23T00:59:43;19.70;99.90
3602;DHT22;1815;50.950;6.920;2022-07-23T01:02:09;19.70;99.90
3602;DHT22;1815;50.950;6.920;2022-07-23T01:04:35;19.70;99.90
3602;DHT22;1815;50.950;6.920;2022-07-23T01:07:01;19.60;99.90
3602;DHT22;1815;50.950;6.920;2022-07-23T01:09:27;19.60;99.90
3602;DHT22;1815;50.950;6.920;2022-07-23T01:11:54;19.60;99.90
3602;DHT22;1815;50.950;6.920;2022-07-23T01:14:21;19.50;99.90
3602;DHT22;1815;50.950;6.920;2022-07-23T01:16:48;19.40;99.90
3602;DHT22;1815;50.950;6.920;2022-07-23T01:19:14;19.40;99.90
3602;DHT22;1815;50.950;6.920;2022-07-23T01:21:46;19.20;99.90
3602;DHT22;1815;50.950;6.920;2022-07-23T01:24:12;19.10;99.90
3602;DHT22;1815;50.950;6.920;2022-07-23T01:26:46;19.10;99.90
3602;DHT22;1815;50.950;6.920;2022-07-23T01:29:13;19.10;99.90
3602;DHT22;1815;50.950;6.920;2022-07-23T01:31:39;19.10;99.90
3602;DHT22;1815;50.950;6.920;2022-07-23T01:34:07;19.00;99.90
3602;DHT22;1815;50.950;6.920;2022-07-23T01:36:34;19.00;99.90
3602;DHT22;1815;50.950;6.920;2022-07-23T01:39:00;19.00;99.90
3602;DHT22;1815;50.950;6.920;2022-07-23T01:41:26;19.00;99.90
3602;DHT22;1815;50.950;6.920;2022-07-23T01:43:52;19.00;99.90
3602;DHT22;1815;50.950;6.920;2022-07-23T01:46:18;19.00;99.90
3602;DHT22;1815;50.950;6.920;2022-07-23T01:48:48;19.00;99.90
3602;DHT22;1815;50.950;6.920;2022-07-23T01:51:30;19.00;99.90
3602;DHT22;1815;50.950;6.920;2022-07-23T01:54:02;19.00;99.90
3602;DHT22;1815;50.950;6.920;2022-07-23T01:56:29;19.00;99.90
3602;DHT22;1815;50.950;6.920;2022-07-23T01:58:55;18.90;99.90
3602;DHT22;1815;50.950;6.920;2022-07-23T02:01:33;18.90;99.90
3602;DHT22;1815;50.950;6.920;2022-07-23T02:03:59;18.90;99.90
3602;DHT22;1815;50.950;6.920;2022-07-23T02:06:25;18.90;99.90
3602;DHT22;1815;50.950;6.920;2022-07-23T02:08:51;18.90;99.90
3602;DHT22;1815;50.950;6.920;2022-07-23T02:11:16;18.90;99.90
3602;DHT22;1815;50.950;6.920;2022-07-23T02:13:42;18.90;99.90
3602;DHT22;1815;50.950;6.920;2022-07-23T02:16:08;18.90;99.90
3602;DHT22;1815;50.950;6.920;2022-07-23T02:18:34;18.90;99.90
3602;DHT22;1815;50.950;6.920;2022-07-23T02:21:00;18.80;99.90
3602;DHT22;1815;50.950;6.920;2022-07-23T02:23:27;18.90;99.90
3602;DHT22;1815;50.950;6.920;2022-07-23T02:25:53;18.80;99.90
3602;DHT22;1815;50.950;6.920;2022-07-23T02:28:19;18.80;99.90
3602;DHT22;1815;50.950;6.920;2022-07-23T02:30:44;18.80;99.90
3602;DHT22;1815;50.950;6.920;2022-07-23T02:33:10;18.90;99.90
3602;DHT22;1815;50.950;6.920;2022-07-23T02:35:38;18.80;99.90
3602;DHT22;1815;50.950;6.920;2022-07-23T02:38:03;18.80;99.90
3602;DHT22;1815;50.950;6.920;2022-07-23T02:40:30;18.90;99.90
3602;DHT22;1815;50.950;6.920;2022-07-23T02:42:56;18.90;99.90
3602;DHT22;1815;50.950;6.920;2022-07-23T02:45:23;18.90;99.90
3602;DHT22;1815;50.950;6.920;2022-07-23T02:47:49;18.90;99.90
3602;DHT22;1815;50.950;6.920;2022-07-23T02:50:15;18.90;99.90
3602;DHT22;1815;50.950;6.920;2022-07-23T02:52:42;19.00;99.90
3602;DHT22;1815;50.950;6.920;2022-07-23T02:55:08;19.00;99.90
3602;DHT22;1815;50.950;6.920;2022-07-23T02:57:34;19.00;99.90
3602;DHT22;1815;50.950;6.920;2022-07-23T03:00:00;19.00;99.90
3602;DHT22;1815;50.950;6.920;2022-07-23T03:02:26;18.90;99.90
3602;DHT22;1815;50.950;6.920;2022-07-23T03:04:52;18.90;99.90
3602;DHT22;1815;50.950;6.920;2022-07-23T03:07:18;18.90;99.90
3602;DHT22;1815;50.950;6.920;2022-07-23T03:09:44;18.80;99.90
3602;DHT22;1815;50.950;6.920;2022-07-23T03:12:10;18.80;99.90
3602;DHT22;1815;50.950;6.920;2022-07-23T03:14:36;18.80;99.90
3602;DHT22;1815;50.950;6.920;2022-07-23T03:17:01;18.70;99.90
3602;DHT22;1815;50.950;6.920;2022-07-23T03:19:27;18.70;99.90
3602;DHT22;1815;50.950;6.920;2022-07-23T03:21:53;18.70;99.90
3602;DHT22;1815;50.950;6.920;2022-07-23T03:24:19;18.60;99.90
3602;DHT22;1815;50.950;6.920;2022-07-23T03:26:44;18.60;99.90
3602;DHT22;1815;50.950;6.920;2022-07-23T03:29:12;18.60;99.90
3602;DHT22;1815;50.950;6.920;2022-07-23T03:31:38;18.50;99.90
3602;DHT22;1815;50.950;6.920;2022-07-23T03:34:03;18.60;99.90
3602;DHT22;1815;50.950;6.920;2022-07-23T03:36:30;18.50;99.90
3602;DHT22;1815;50.950;6.920;2022-07-23T03:38:56;18.50;99.90
3602;DHT22;1815;50.950;6.920;2022-07-23T03:41:22;18.50;99.90
3602;DHT22;1815;50.950;6.920;2022-07-23T03:43:48;18.40;99.90
3602;DHT22;1815;50.950;6.920;2022-07-23T03:46:14;18.40;99.90
3602;DHT22;1815;50.950;6.920;2022-07-23T03:48:39;18.40;99.90
3602;DHT22;1815;50.950;6.920;2022-07-23T03:51:05;18.40;99.90
3602;DHT22;1815;50.950;6.920;2022-07-23T03:53:31;18.40;99.90
3602;DHT22;1815;50.950;6.920;2022-07-23T03:55:57;18.40;99.90
3602;DHT22;1815;50.950;6.920;2022-07-23T03:58:23;18.30;99.90
3602;DHT22;1815;50.950;6.920;2022-07-23T04:00:49;18.40;99.90
3602;DHT22;1815;50.950;6.920;2022-07-23T04:03:15;18.30;99.90
3602;DHT22;1815;50.950;6.920;2022-07-23T04:05:42;18.30;99.90
3602;DHT22;1815;50.950;6.920;2022-07-23T04:08:11;18.30;99.90
3602;DHT22;1815;50.950;6.920;2022-07-23T04:10:40;18.30;99.90
3602;DHT22;1815;50.950;6.920;2022-07-23T04:13:07;18.30;99.90
3602;DHT22;1815;50.950;6.920;2022-07-23T04:15:33;18.30;99.90
3602;DHT22;1815;50.950;6.920;2022-07-23T04:17:59;18.30;99.90
3602;DHT22;1815;50.950;6.920;2022-07-23T04:20:34;18.30;99.90
3602;DHT22;1815;50.950;6.920;2022-07-23T04:23:02;18.30;99.90
3602;DHT22;1815;50.950;6.920;2022-07-23T04:25:28;18.30;99.90
3602;DHT22;1815;50.950;6.920;2022-07-23T04:27:54;18.30;99.90
3602;DHT22;1815;50.950;6.920;2022-07-23T04:30:20;18.30;99.90
3602;DHT22;1815;50.950;6.920;2022-07-23T04:32:46;18.40;99.90
3602;DHT22;1815;50.950;6.920;2022-07-23T04:35:22;18.40;99.90
3602;DHT22;1815;50.950;6.920;2022-07-23T04:37:51;18.40;99.90
3602;DHT22;1815;50.950;6.920;2022-07-23T04:40:18;18.40;99.90
3602;DHT22;1815;50.950;6.920;2022-07-23T04:42:43;18.40;99.90
3602;DHT22;1815;50.950;6.920;2022-07-23T04:45:09;18.40;99.90
3602;DHT22;1815;50.950;6.920;2022-07-23T04:47:35;18.40;99.90
3602;DHT22;1815;50.950;6.920;2022-07-23T04:50:01;18.40;99.90
3602;DHT22;1815;50.950;6.920;2022-07-23T04:52:28;18.40;99.90
3602;DHT22;1815;50.950;6.920;2022-07-23T04:54:54;18.50;99.90
3602;DHT22;1815;50.950;6.920;2022-07-23T04:57:19;18.50;99.90
3602;DHT22;1815;50.950;6.920;2022-07-23T04:59:45;18.50;99.90
3602;DHT22;1815;50.950;6.920;2022-07-23T05:02:12;18.60;99.90
3602;DHT22;1815;50.950;6.920;2022-07-23T05:04:39;18.70;99.90
3602;DHT22;1815;50.950;6.920;2022-07-23T05:07:05;18.80;99.90
3602;DHT22;1815;50.950;6.920;2022-07-23T05:09:32;18.90;99.90
3602;DHT22;1815;50.950;6.920;2022-07-23T05:11:58;18.90;99.90
3602;DHT22;1815;50.950;6.920;2022-07-23T05:14:24;19.00;99.90
3602;DHT22;1815;50.950;6.920;2022-07-23T05:16:51;19.00;99.90
3602;DHT22;1815;50.950;6.920;2022-07-23T05:19:21;19.10;99.90
3602;DHT22;1815;50.950;6.920;2022-07-23T05:21:48;19.10;99.90
3602;DHT22;1815;50.950;6.920;2022-07-23T05:24:14;19.20;99.90
3602;DHT22;1815;50.950;6.920;2022-07-23T05:26:39;19.30;99.90
3602;DHT22;1815;50.950;6.920;2022-07-23T05:29:05;19.30;99.90
3602;DHT22;1815;50.950;6.920;2022-07-23T05:31:32;19.40;99.90
3602;DHT22;1815;50.950;6.920;2022-07-23T05:33:58;19.40;99.90
3602;DHT22;1815;50.950;6.920;2022-07-23T05:36:24;19.50;99.90
3602;DHT22;1815;50.950;6.920;2022-07-23T05:38:53;19.60;99.90
3602;DHT22;1815;50.950;6.920;2022-07-23T05:41:19;19.70;99.90
3602;DHT22;1815;50.950;6.920;2022-07-23T05:43:45;19.80;99.90
3602;DHT22;1815;50.950;6.920;2022-07-23T05:46:11;20.00;99.90
3602;DHT22;1815;50.950;6.920;2022-07-23T05:48:40;20.00;99.90
3602;DHT22;1815;50.950;6.920;2022-07-23T05:51:20;20.10;99.90
3602;DHT22;1815;50.950;6.920;2022-07-23T05:53:47;20.20;99.90
3602;DHT22;1815;50.950;6.920;2022-07-23T05:56:26;20.30;99.90
3602;DHT22;1815;50.950;6.920;2022-07-23T05:58:52;20.60;99.90
3602;DHT22;1815;50.950;6.920;2022-07-23T06:01:19;20.90;99.90
3602;DHT22;1815;50.950;6.920;2022-07-23T06:03:54;21.30;99.90
3602;DHT22;1815;50.950;6.920;2022-07-23T06:06:20;21.90;99.90
3602;DHT22;1815;50.950;6.920;2022-07-23T06:08:46;22.60;99.90
3602;DHT22;1815;50.950;6.920;2022-07-23T06:11:12;23.50;99.90
3602;DHT22;1815;50.950;6.920;2022-07-23T06:13:38;24.30;99.90
3602;DHT22;1815;50.950;6.920;2022-07-23T06:16:04;24.90;99.90
3602;DHT22;1815;50.950;6.920;2022-07-23T06:18:30;25.30;99.90
3602;DHT22;1815;50.950;6.920;2022-07-23T06:20:56;25.70;99.90
3602;DHT22;1815;50.950;6.920;2022-07-23T06:23:22;26.10;99.90
3602;DHT22;1815;50.950;6.920;2022-07-23T06:25:47;26.60;99.90
3602;DHT22;1815;50.950;6.920;2022-07-23T06:28:13;27.20;99.90
3602;DHT22;1815;50.950;6.920;2022-07-23T06:30:41;27.80;99.90
3602;DHT22;1815;50.950;6.920;2022-07-23T06:33:07;28.40;99.90
3602;DHT22;1815;50.950;6.920;2022-07-23T06:35:33;29.00;99.90
3602;DHT22;1815;50.950;6.920;2022-07-23T06:37:59;29.50;99.90
3602;DHT22;1815;50.950;6.920;2022-07-23T06:40:25;30.00;99.90
3602;DHT22;1815;50.950;6.920;2022-07-23T06:42:51;30.30;99.90
3602;DHT22;1815;50.950;6.920;2022-07-23T06:45:21;30.60;99.90
3602;DHT22;1815;50.950;6.920;2022-07-23T06:47:48;31.10;99.90
3602;DHT22;1815;50.950;6.920;2022-07-23T06:50:14;31.40;99.90
3602;DHT22;1815;50.950;6.920;2022-07-23T06:52:42;31.70;99.90
3602;DHT22;1815;50.950;6.920;2022-07-23T06:55:08;32.10;99.90
3602;DHT22;1815;50.950;6.920;2022-07-23T06:57:34;32.30;99.90
3602;DHT22;1815;50.950;6.920;2022-07-23T07:00:00;32.60;99.90
3602;DHT22;1815;50.950;6.920;2022-07-23T07:02:25;32.60;99.90
3602;DHT22;1815;50.950;6.920;2022-07-23T07:04:51;32.50;99.90
3602;DHT22;1815;50.950;6.920;2022-07-23T07:07:17;32.50;99.90
3602;DHT22;1815;50.950;6.920;2022-07-23T07:09:43;32.30;99.90
3602;DHT22;1815;50.950;6.920;2022-07-23T07:12:10;32.50;99.90
3602;DHT22;1815;50.950;6.920;2022-07-23T07:14:37;32.60;99.90
3602;DHT22;1815;50.950;6.920;2022-07-23T07:17:03;32.80;99.90
3602;DHT22;1815;50.950;6.920;2022-07-23T07:19:29;33.10;99.90
3602;DHT22;1815;50.950;6.920;2022-07-23T07:21:54;33.40;99.90
3602;DHT22;1815;50.950;6.920;2022-07-23T07:24:20;33.80;99.90
3602;DHT22;1815;50.950;6.920;2022-07-23T07:26:46;34.30;99.90
3602;DHT22;1815;50.950;6.920;2022-07-23T07:29:12;34.70;99.00
3602;DHT22;1815;50.950;6.920;2022-07-23T07:31:37;34.90;97.60
3602;DHT22;1815;50.950;6.920;2022-07-23T07:34:03;35.20;96.10
3602;DHT22;1815;50.950;6.920;2022-07-23T07:36:29;35.40;95.00
3602;DHT22;1815;50.950;6.920;2022-07-23T07:38:55;35.70;94.50
3602;DHT22;1815;50.950;6.920;2022-07-23T07:41:20;36.00;93.90
3602;DHT22;1815;50.950;6.920;2022-07-23T07:43:50;36.40;93.50
3602;DHT22;1815;50.950;6.920;2022-07-23T07:46:16;36.80;91.40
3602;DHT22;1815;50.950;6.920;2022-07-23T07:48:42;37.20;91.30
3602;DHT22;1815;50.950;6.920;2022-07-23T07:51:08;37.60;90.80
3602;DHT22;1815;50.950;6.920;2022-07-23T07:53:33;38.00;88.00
3602;DHT22;1815;50.950;6.920;2022-07-23T07:55:59;38.40;84.80
3602;DHT22;1815;50.950;6.920;2022-07-23T07:58:25;38.60;80.90
3602;DHT22;1815;50.950;6.920;2022-07-23T08:00:50;38.70;75.80
3602;DHT22;1815;50.950;6.920;2022-07-23T08:03:16;38.40;75.10
3602;DHT22;1815;50.950;6.920;2022-07-23T08:05:42;38.20;72.30
3602;DHT22;1815;50.950;6.920;2022-07-23T08:08:08;37.80;70.70
3602;DHT22;1815;50.950;6.920;2022-07-23T08:10:40;37.30;68.50
3602;DHT22;1815;50.950;6.920;2022-07-23T08:13:06;36.80;69.50
3602;DHT22;1815;50.950;6.920;2022-07-23T08:15:32;36.20;68.40
3602;DHT22;1815;50.950;6.920;2022-07-23T08:17:58;35.80;69.00
3602;DHT22;1815;50.950;6.920;2022-07-23T08:20:25;35.40;69.20
3602;DHT22;1815;50.950;6.920;2022-07-23T08:22:56;34.90;69.70
3602;DHT22;1815;50.950;6.920;2022-07-23T08:25:28;34.70;70.20
3602;DHT22;1815;50.950;6.920;2022-07-23T08:27:55;34.70;71.60
3602;DHT22;1815;50.950;6.920;2022-07-23T08:30:22;34.50;71.10
3602;DHT22;1815;50.950;6.920;2022-07-23T08:32:57;34.20;70.30
3602;DHT22;1815;50.950;6.920;2022-07-23T08:35:44;33.80;70.10
3602;DHT22;1815;50.950;6.920;2022-07-23T08:38:13;33.40;72.90
3602;DHT22;1815;50.950;6.920;2022-07-23T08:40:42;33.10;71.40
3602;DHT22;1815;50.950;6.920;2022-07-23T08:43:13;32.70;71.10
3602;DHT22;1815;50.950;6.920;2022-07-23T08:45:45;32.50;71.90
3602;DHT22;1815;50.950;6.920;2022-07-23T08:48:13;32.60;74.20
3602;DHT22;1815;50.950;6.920;2022-07-23T08:50:45;33.00;76.50
3602;DHT22;1815;50.950;6.920;2022-07-23T08:53:11;33.50;76.00
3602;DHT22;1815;50.950;6.920;2022-07-23T08:55:37;33.90;75.60
3602;DHT22;1815;50.950;6.920;2022-07-23T08:58:03;34.30;76.60
3602;DHT22;1815;50.950;6.920;2022-07-23T09:00:29;34.70;75.60
3602;DHT22;1815;50.950;6.920;2022-07-23T09:02:55;35.10;74.40
3602;DHT22;1815;50.950;6.920;2022-07-23T09:05:21;35.60;74.20
3602;DHT22;1815;50.950;6.920;2022-07-23T09:16:24;37.30;67.70
3602;DHT22;1815;50.950;6.920;2022-07-23T09:18:52;37.50;68.90
3602;DHT22;1815;50.950;6.920;2022-07-23T09:21:34;37.90;66.10
3602;DHT22;1815;50.950;6.920;2022-07-23T09:24:13;38.20;64.90
3602;DHT22;1815;50.950;6.920;2022-07-23T09:26:43;38.60;60.90
3602;DHT22;1815;50.950;6.920;2022-07-23T09:34:25;39.10;59.00
3602;DHT22;1815;50.950;6.920;2022-07-23T09:37:12;39.00;58.20
3602;DHT22;1815;50.950;6.920;2022-07-23T09:39:40;39.00;56.50
3602;DHT22;1815;50.950;6.920;2022-07-23T09:44:48;39.10;57.60
3602;DHT22;1815;50.950;6.920;2022-07-23T09:47:14;39.40;57.60
3602;DHT22;1815;50.950;6.920;2022-07-23T09:49:40;39.60;57.10
3602;DHT22;1815;50.950;6.920;2022-07-23T09:52:27;39.90;56.10
3602;DHT22;1815;50.950;6.920;2022-07-23T09:54:58;40.20;55.80
3602;DHT22;1815;50.950;6.920;2022-07-23T09:57:26;40.40;55.00
3602;DHT22;1815;50.950;6.920;2022-07-23T09:59:52;40.60;54.00
3602;DHT22;1815;50.950;6.920;2022-07-23T10:02:18;40.80;53.20
3602;DHT22;1815;50.950;6.920;2022-07-23T10:05:07;40.60;51.40
3602;DHT22;1815;50.950;6.920;2022-07-23T10:08:12;40.40;51.50
3602;DHT22;1815;50.950;6.920;2022-07-23T10:11:01;40.30;50.30
3602;DHT22;1815;50.950;6.920;2022-07-23T10:13:53;40.20;51.00
3602;DHT22;1815;50.950;6.920;2022-07-23T10:16:47;40.20;50.60
3602;DHT22;1815;50.950;6.920;2022-07-23T10:19:13;40.10;50.20
3602;DHT22;1815;50.950;6.920;2022-07-23T10:21:46;39.90;49.70
3602;DHT22;1815;50.950;6.920;2022-07-23T10:24:30;39.40;48.30
3602;DHT22;1815;50.950;6.920;2022-07-23T10:30:07;38.20;49.10
3602;DHT22;1815;50.950;6.920;2022-07-23T10:32:56;37.60;49.30
3602;DHT22;1815;50.950;6.920;2022-07-23T10:38:11;37.10;50.60
3602;DHT22;1815;50.950;6.920;2022-07-23T10:41:00;37.10;50.00
3602;DHT22;1815;50.950;6.920;2022-07-23T10:43:26;37.00;51.50
3602;DHT22;1815;50.950;6.920;2022-07-23T10:45:53;37.30;52.40
3602;DHT22;1815;50.950;6.920;2022-07-23T10:48:21;37.50;51.80
3602;DHT22;1815;50.950;6.920;2022-07-23T10:51:13;37.70;51.10
3602;DHT22;1815;50.950;6.920;2022-07-23T10:59:24;38.20;49.70
3602;DHT22;1815;50.950;6.920;2022-07-23T11:01:50;38.30;50.30
3602;DHT22;1815;50.950;6.920;2022-07-23T11:04:16;38.30;49.10
3602;DHT22;1815;50.950;6.920;2022-07-23T11:09:39;38.10;46.50
3602;DHT22;1815;50.950;6.920;2022-07-23T11:17:59;37.90;48.40
3602;DHT22;1815;50.950;6.920;2022-07-23T11:20:26;37.80;48.50
3602;DHT22;1815;50.950;6.920;2022-07-23T11:22:55;37.70;47.80
3602;DHT22;1815;50.950;6.920;2022-07-23T11:27:48;37.40;48.00
3602;DHT22;1815;50.950;6.920;2022-07-23T11:35:38;37.10;48.50
3602;DHT22;1815;50.950;6.920;2022-07-23T11:38:14;37.10;47.90
3602;DHT22;1815;50.950;6.920;2022-07-23T11:40:43;37.20;48.30
3602;DHT22;1815;50.950;6.920;2022-07-23T11:43:10;37.20;48.70
3602;DHT22;1815;50.950;6.920;2022-07-23T11:45:41;37.20;47.90
3602;DHT22;1815;50.950;6.920;2022-07-23T11:48:22;37.10;48.30
3602;DHT22;1815;50.950;6.920;2022-07-23T11:50:50;37.10;48.20
3602;DHT22;1815;50.950;6.920;2022-07-23T11:53:26;37.20;47.80
3602;DHT22;1815;50.950;6.920;2022-07-23T11:55:53;37.10;47.20
3602;DHT22;1815;50.950;6.920;2022-07-23T11:58:20;37.20;47.30
3602;DHT22;1815;50.950;6.920;2022-07-23T12:00:47;37.00;47.70
3602;DHT22;1815;50.950;6.920;2022-07-23T12:03:13;37.00;47.50
3602;DHT22;1815;50.950;6.920;2022-07-23T12:05:39;37.00;47.90
3602;DHT22;1815;50.950;6.920;2022-07-23T12:08:07;36.90;46.80
3602;DHT22;1815;50.950;6.920;2022-07-23T12:10:44;36.80;46.40
3602;DHT22;1815;50.950;6.920;2022-07-23T12:13:16;36.60;45.60
3602;DHT22;1815;50.950;6.920;2022-07-23T12:15:48;36.50;45.50
3602;DHT22;1815;50.950;6.920;2022-07-23T12:18:19;36.20;44.90
3602;DHT22;1815;50.950;6.920;2022-07-23T12:20:48;36.00;45.30
3602;DHT22;1815;50.950;6.920;2022-07-23T12:23:17;35.90;45.80
3602;DHT22;1815;50.950;6.920;2022-07-23T12:25:45;35.80;46.00
3602;DHT22;1815;50.950;6.920;2022-07-23T12:30:47;35.60;45.00
3602;DHT22;1815;50.950;6.920;2022-07-23T12:33:28;35.50;45.00
3602;DHT22;1815;50.950;6.920;2022-07-23T12:36:06;35.30;45.00
3602;DHT22;1815;50.950;6.920;2022-07-23T12:38:44;35.10;45.60
3602;DHT22;1815;50.950;6.920;2022-07-23T12:41:12;35.00;45.60
3602;DHT22;1815;50.950;6.920;2022-07-23T12:43:40;34.80;45.70
3602;DHT22;1815;50.950;6.920;2022-07-23T12:46:19;34.70;46.40
3602;DHT22;1815;50.950;6.920;2022-07-23T12:51:22;34.40;46.50
3602;DHT22;1815;50.950;6.920;2022-07-23T12:54:03;34.20;45.90
3602;DHT22;1815;50.950;6.920;2022-07-23T12:56:32;33.90;45.30
3602;DHT22;1815;50.950;6.920;2022-07-23T13:01:35;33.20;45.30
3602;DHT22;1815;50.950;6.920;2022-07-23T13:04:06;32.90;45.50
3602;DHT22;1815;50.950;6.920;2022-07-23T13:06:34;32.60;45.80
3602;DHT22;1815;50.950;6.920;2022-07-23T13:09:02;32.30;46.00
3602;DHT22;1815;50.950;6.920;2022-07-23T13:11:29;32.00;46.20
3602;DHT22;1815;50.950;6.920;2022-07-23T13:13:54;31.70;46.70
3602;DHT22;1815;50.950;6.920;2022-07-23T13:16:20;31.40;46.90
3602;DHT22;1815;50.950;6.920;2022-07-23T13:18:46;31.20;47.40
3602;DHT22;1815;50.950;6.920;2022-07-23T13:21:12;31.00;48.10
3602;DHT22;1815;50.950;6.920;2022-07-23T13:23:38;30.90;48.10
3602;DHT22;1815;50.950;6.920;2022-07-23T13:26:04;30.90;48.50
3602;DHT22;1815;50.950;6.920;2022-07-23T13:28:30;30.80;48.60
3602;DHT22;1815;50.950;6.920;2022-07-23T13:30:56;30.70;48.90
3602;DHT22;1815;50.950;6.920;2022-07-23T13:33:23;30.60;48.90
3602;DHT22;1815;50.950;6.920;2022-07-23T13:35:50;30.60;49.10
3602;DHT22;1815;50.950;6.920;2022-07-23T13:38:16;30.60;48.90
3602;DHT22;1815;50.950;6.920;2022-07-23T13:40:45;30.50;49.10
3602;DHT22;1815;50.950;6.920;2022-07-23T13:43:13;30.40;49.60
3602;DHT22;1815;50.950;6.920;2022-07-23T13:45:41;30.50;49.60
3602;DHT22;1815;50.950;6.920;2022-07-23T13:48:11;30.40;49.30
3602;DHT22;1815;50.950;6.920;2022-07-23T13:50:38;30.30;49.40
3602;DHT22;1815;50.950;6.920;2022-07-23T13:53:09;30.40;49.40
3602;DHT22;1815;50.950;6.920;2022-07-23T13:55:37;30.30;49.40
3602;DHT22;1815;50.950;6.920;2022-07-23T13:58:05;30.20;49.30
3602;DHT22;1815;50.950;6.920;2022-07-23T14:01:18;30.10;49.20
3602;DHT22;1815;50.950;6.920;2022-07-23T14:03:44;29.90;49.20
3602;DHT22;1815;50.950;6.920;2022-07-23T14:06:10;29.90;49.70
3602;DHT22;1815;50.950;6.920;2022-07-23T14:08:35;29.80;49.80
3602;DHT22;1815;50.950;6.920;2022-07-23T14:11:01;29.70;49.70
3602;DHT22;1815;50.950;6.920;2022-07-23T14:13:27;29.70;50.20
3602;DHT22;1815;50.950;6.920;2022-07-23T14:15:53;29.60;50.00
3602;DHT22;1815;50.950;6.920;2022-07-23T14:18:18;29.60;49.90
3602;DHT22;1815;50.950;6.920;2022-07-23T14:20:44;29.50;50.10
3602;DHT22;1815;50.950;6.920;2022-07-23T14:23:10;29.50;50.40
3602;DHT22;1815;50.950;6.920;2022-07-23T14:25:36;29.50;50.60
3602;DHT22;1815;50.950;6.920;2022-07-23T14:28:01;29.50;50.80
3602;DHT22;1815;50.950;6.920;2022-07-23T14:30:27;29.60;50.80
3602;DHT22;1815;50.950;6.920;2022-07-23T14:32:53;29.60;50.80
3602;DHT22;1815;50.950;6.920;2022-07-23T14:35:19;29.60;50.70
3602;DHT22;1815;50.950;6.920;2022-07-23T14:37:44;29.70;50.70
3602;DHT22;1815;50.950;6.920;2022-07-23T14:40:10;29.70;50.70
3602;DHT22;1815;50.950;6.920;2022-07-23T14:42:36;29.60;50.50
3602;DHT22;1815;50.950;6.920;2022-07-23T14:45:03;29.60;50.50
3602;DHT22;1815;50.950;6.920;2022-07-23T14:47:30;29.50;50.60
3602;DHT22;1815;50.950;6.920;2022-07-23T14:49:56;29.50;51.10
3602;DHT22;1815;50.950;6.920;2022-07-23T14:52:22;29.50;50.70
3602;DHT22;1815;50.950;6.920;2022-07-23T14:54:47;29.50;50.80
3602;DHT22;1815;50.950;6.920;2022-07-23T14:57:13;29.50;51.10
3602;DHT22;1815;50.950;6.920;2022-07-23T14:59:39;29.60;51.10
3602;DHT22;1815;50.950;6.920;2022-07-23T15:02:07;29.60;51.30
3602;DHT22;1815;50.950;6.920;2022-07-23T15:04:33;29.70;51.00
3602;DHT22;1815;50.950;6.920;2022-07-23T15:06:59;29.70;50.70
3602;DHT22;1815;50.950;6.920;2022-07-23T15:09:25;29.70;50.60
3602;DHT22;1815;50.950;6.920;2022-07-23T15:11:50;29.80;50.70
3602;DHT22;1815;50.950;6.920;2022-07-23T15:14:16;29.80;50.70
3602;DHT22;1815;50.950;6.920;2022-07-23T15:16:42;29.80;50.70
3602;DHT22;1815;50.950;6.920;2022-07-23T15:19:08;29.80;50.70
3602;DHT22;1815;50.950;6.920;2022-07-23T15:21:33;29.80;50.70
3602;DHT22;1815;50.950;6.920;2022-07-23T15:23:59;29.80;50.90
3602;DHT22;1815;50.950;6.920;2022-07-23T15:26:29;29.90;51.10
3602;DHT22;1815;50.950;6.920;2022-07-23T15:28:56;29.90;51.10
3602;DHT22;1815;50.950;6.920;2022-07-23T15:31:24;29.90;50.80
3602;DHT22;1815;50.950;6.920;2022-07-23T15:33:51;29.90;50.90
3602;DHT22;1815;50.950;6.920;2022-07-23T15:36:18;29.90;50.90
3602;DHT22;1815;50.950;6.920;2022-07-23T15:38:44;30.00;50.90
3602;DHT22;1815;50.950;6.920;2022-07-23T15:41:10;29.90;51.00
3602;DHT22;1815;50.950;6.920;2022-07-23T15:43:36;29.90;51.20
3602;DHT22;1815;50.950;6.920;2022-07-23T15:46:02;29.90;51.30
3602;DHT22;1815;50.950;6.920;2022-07-23T15:48:29;29.90;51.20
3602;DHT22;1815;50.950;6.920;2022-07-23T15:50:54;29.90;51.10
3602;DHT22;1815;50.950;6.920;2022-07-23T15:53:20;29.90;51.10
3602;DHT22;1815;50.950;6.920;2022-07-23T15:55:46;29.90;51.00
3602;DHT22;1815;50.950;6.920;2022-07-23T15:58:13;29.90;51.10
3602;DHT22;1815;50.950;6.920;2022-07-23T16:00:39;29.90;51.60
3602;DHT22;1815;50.950;6.920;2022-07-23T16:03:05;29.80;50.70
3602;DHT22;1815;50.950;6.920;2022-07-23T16:05:31;29.80;50.70
3602;DHT22;1815;50.950;6.920;2022-07-23T16:08:01;29.70;50.70
3602;DHT22;1815;50.950;6.920;2022-07-23T16:10:27;29.70;50.70
3602;DHT22;1815;50.950;6.920;2022-07-23T16:12:53;29.70;50.90
3602;DHT22;1815;50.950;6.920;2022-07-23T16:15:19;29.80;51.30
3602;DHT22;1815;50.950;6.920;2022-07-23T16:17:45;29.80;51.20
3602;DHT22;1815;50.950;6.920;2022-07-23T16:20:11;29.80;51.10
3602;DHT22;1815;50.950;6.920;2022-07-23T16:22:37;29.90;51.10
3602;DHT22;1815;50.950;6.920;2022-07-23T16:25:04;29.90;50.80
3602;DHT22;1815;50.950;6.920;2022-07-23T16:27:35;29.90;50.80
3602;DHT22;1815;50.950;6.920;2022-07-23T16:30:01;29.80;50.70
3602;DHT22;1815;50.950;6.920;2022-07-23T16:32:26;29.70;50.70
3602;DHT22;1815;50.950;6.920;2022-07-23T16:34:53;29.70;50.80
3602;DHT22;1815;50.950;6.920;2022-07-23T16:37:19;29.60;50.70
3602;DHT22;1815;50.950;6.920;2022-07-23T16:39:44;29.60;50.90
3602;DHT22;1815;50.950;6.920;2022-07-23T16:42:10;29.50;50.90
3602;DHT22;1815;50.950;6.920;2022-07-23T16:44:36;29.50;51.10
3602;DHT22;1815;50.950;6.920;2022-07-23T16:47:02;29.40;51.10
3602;DHT22;1815;50.950;6.920;2022-07-23T16:49:28;29.40;51.20
3602;DHT22;1815;50.950;6.920;2022-07-23T16:51:54;29.40;51.50
3602;DHT22;1815;50.950;6.920;2022-07-23T16:54:20;29.40;51.40
3602;DHT22;1815;50.950;6.920;2022-07-23T16:57:39;29.30;51.40
3602;DHT22;1815;50.950;6.920;2022-07-23T16:59:45;29.30;51.60